Applegate, Oregon
Current Conditions -  °F | °C
As of 3:53 PM on Wednesday 17 Dec 2014 (Local Time) from KMFR Reporting Station
Overcast Overcast  
Wind Chill: 50°   Ceiling: 4700
Heat Index: 50°   Visibility: 10mi
Dew Point: 42°   Wind: 3mph
Humidity: 74%   Direction: 30°NNE
Pressure: 29.91"   Gusts: NA
Location:  42.1499°N, 123.043°W
Report Text: KMFR 172353Z 03003KT 10SM FEW039 BKN047 OVC085 10/06 A2991 RMK AO2 RAB2254E33 SLP131 P0000 60000 T01000056 10100 20078 53007
Loading
Personal Weather Stations






























Interactive Weather Map New forecast layout! Learn more

10-Day Weather Forecast

Advertisements
Track Severe Weather on mobile